sensor_id;sensor_type;location;lat;lon;timestamp;temperature;humidity
6186;DHT22;3126;52.738;8.316;2022-08-19T00:01:04;16.50;95.80
6186;DHT22;3126;52.738;8.316;2022-08-19T00:06:05;16.40;95.30
6186;DHT22;3126;52.738;8.316;2022-08-19T00:11:06;16.30;95.30
6186;DHT22;3126;52.738;8.316;2022-08-19T00:16:07;16.30;95.70
6186;DHT22;3126;52.738;8.316;2022-08-19T00:21:08;16.20;95.80
6186;DHT22;3126;52.738;8.316;2022-08-19T00:26:09;16.20;95.50
6186;DHT22;3126;52.738;8.316;2022-08-19T01:51:49;16.10;95.60
6186;DHT22;3126;52.738;8.316;2022-08-19T01:56:58;15.70;97.80
6186;DHT22;3126;52.738;8.316;2022-08-19T02:01:59;15.60;97.80
6186;DHT22;3126;52.738;8.316;2022-08-19T02:57:33;15.60;97.50
6186;DHT22;3126;52.738;8.316;2022-08-19T03:02:34;15.40;99.90
6186;DHT22;3126;52.738;8.316;2022-08-19T03:07:36;15.40;99.90
6186;DHT22;3126;52.738;8.316;2022-08-19T03:12:38;15.40;99.90
6186;DHT22;3126;52.738;8.316;2022-08-19T03:17:39;15.30;99.90
6186;DHT22;3126;52.738;8.316;2022-08-19T03:22:39;15.30;99.90
6186;DHT22;3126;52.738;8.316;2022-08-19T03:27:40;15.30;99.90
6186;DHT22;3126;52.738;8.316;2022-08-19T03:32:40;15.20;99.90
6186;DHT22;3126;52.738;8.316;2022-08-19T03:37:41;15.20;99.90
6186;DHT22;3126;52.738;8.316;2022-08-19T03:42:41;15.10;99.90
6186;DHT22;3126;52.738;8.316;2022-08-19T03:47:42;15.10;99.90
6186;DHT22;3126;52.738;8.316;2022-08-19T03:52:48;15.00;99.90
6186;DHT22;3126;52.738;8.316;2022-08-19T03:57:50;14.90;99.90
6186;DHT22;3126;52.738;8.316;2022-08-19T04:02:51;14.90;99.90
6186;DHT22;3126;52.738;8.316;2022-08-19T04:12:53;14.80;99.90
6186;DHT22;3126;52.738;8.316;2022-08-19T04:17:54;14.80;99.90
6186;DHT22;3126;52.738;8.316;2022-08-19T04:22:56;14.80;99.90
6186;DHT22;3126;52.738;8.316;2022-08-19T04:27:57;14.80;99.90
6186;DHT22;3126;52.738;8.316;2022-08-19T04:32:57;14.90;99.90
6186;DHT22;3126;52.738;8.316;2022-08-19T04:37:58;14.90;99.90
6186;DHT22;3126;52.738;8.316;2022-08-19T04:42:59;14.90;99.90
6186;DHT22;3126;52.738;8.316;2022-08-19T04:47:59;14.90;99.90
6186;DHT22;3126;52.738;8.316;2022-08-19T04:53:02;15.00;99.90
6186;DHT22;3126;52.738;8.316;2022-08-19T04:58:03;15.10;99.90
6186;DHT22;3126;52.738;8.316;2022-08-19T05:03:04;15.10;99.90
6186;DHT22;3126;52.738;8.316;2022-08-19T05:08:04;15.00;99.90
6186;DHT22;3126;52.738;8.316;2022-08-19T05:13:05;15.00;99.90
6186;DHT22;3126;52.738;8.316;2022-08-19T05:18:06;15.10;99.90
6186;DHT22;3126;52.738;8.316;2022-08-19T05:23:25;15.20;99.90
6186;DHT22;3126;52.738;8.316;2022-08-19T05:28:26;15.20;99.90
6186;DHT22;3126;52.738;8.316;2022-08-19T05:33:26;15.30;99.90
6186;DHT22;3126;52.738;8.316;2022-08-19T05:38:28;15.30;99.90
6186;DHT22;3126;52.738;8.316;2022-08-19T05:43:28;15.40;99.90
6186;DHT22;3126;52.738;8.316;2022-08-19T05:48:29;15.50;99.90
6186;DHT22;3126;52.738;8.316;2022-08-19T05:53:30;15.60;99.90
6186;DHT22;3126;52.738;8.316;2022-08-19T05:58:31;15.70;99.90
6186;DHT22;3126;52.738;8.316;2022-08-19T06:03:33;15.90;99.90
6186;DHT22;3126;52.738;8.316;2022-08-19T06:08:35;15.90;98.80
6186;DHT22;3126;52.738;8.316;2022-08-19T06:13:36;15.80;98.70
6186;DHT22;3126;52.738;8.316;2022-08-19T06:18:37;15.90;99.00
6186;DHT22;3126;52.738;8.316;2022-08-19T06:23:37;16.00;98.20
6186;DHT22;3126;52.738;8.316;2022-08-19T06:28:39;16.10;97.60
6186;DHT22;3126;52.738;8.316;2022-08-19T06:33:47;16.10;97.70
6186;DHT22;3126;52.738;8.316;2022-08-19T06:38:48;16.20;97.30
6186;DHT22;3126;52.738;8.316;2022-08-19T06:43:48;16.40;96.20
6186;DHT22;3126;52.738;8.316;2022-08-19T06:48:49;16.70;95.90
6186;DHT22;3126;52.738;8.316;2022-08-19T06:53:53;16.80;95.10
6186;DHT22;3126;52.738;8.316;2022-08-19T06:58:53;17.00;95.70
6186;DHT22;3126;52.738;8.316;2022-08-19T07:03:54;17.00;94.80
6186;DHT22;3126;52.738;8.316;2022-08-19T07:08:55;17.00;94.70
6186;DHT22;3126;52.738;8.316;2022-08-19T07:13:56;17.10;95.00
6186;DHT22;3126;52.738;8.316;2022-08-19T07:18:57;17.00;94.30
6186;DHT22;3126;52.738;8.316;2022-08-19T07:23:59;17.20;94.80
6186;DHT22;3126;52.738;8.316;2022-08-19T07:29:00;17.40;93.10
6186;DHT22;3126;52.738;8.316;2022-08-19T07:34:03;17.60;91.70
6186;DHT22;3126;52.738;8.316;2022-08-19T07:39:11;17.70;90.90
6186;DHT22;3126;52.738;8.316;2022-08-19T07:44:12;17.90;90.30
6186;DHT22;3126;52.738;8.316;2022-08-19T07:49:13;18.10;90.60
6186;DHT22;3126;52.738;8.316;2022-08-19T07:54:20;18.40;87.70
6186;DHT22;3126;52.738;8.316;2022-08-19T07:59:22;18.60;86.00
6186;DHT22;3126;52.738;8.316;2022-08-19T08:04:23;18.90;85.40
6186;DHT22;3126;52.738;8.316;2022-08-19T08:09:44;19.10;85.20
6186;DHT22;3126;52.738;8.316;2022-08-19T08:14:48;19.40;82.70
6186;DHT22;3126;52.738;8.316;2022-08-19T08:19:49;19.70;81.80
6186;DHT22;3126;52.738;8.316;2022-08-19T08:24:50;20.10;80.20
6186;DHT22;3126;52.738;8.316;2022-08-19T08:29:51;20.60;78.90
6186;DHT22;3126;52.738;8.316;2022-08-19T08:34:52;21.20;75.60
6186;DHT22;3126;52.738;8.316;2022-08-19T09:20:50;24.60;63.10
6186;DHT22;3126;52.738;8.316;2022-08-19T09:25:50;25.00;61.80
6186;DHT22;3126;52.738;8.316;2022-08-19T09:30:51;25.20;58.90
6186;DHT22;3126;52.738;8.316;2022-08-19T09:36:03;25.30;58.80
